createdAt,value
2023-02-16T00:00:46.640Z,6.18
2023-02-16T00:03:21.101Z,3.55
2023-02-16T00:05:48.488Z,3.35
2023-02-16T00:08:16.568Z,2.97
2023-02-16T00:11:06.672Z,3.77
2023-02-16T00:13:47.673Z,2.42
2023-02-16T00:16:20.625Z,2.92
2023-02-16T00:18:48.061Z,4.22
2023-02-16T00:21:15.473Z,7.93
2023-02-16T00:23:43.188Z,3.85
2023-02-16T00:26:20.480Z,4.80
2023-02-16T00:28:50.311Z,4.03
2023-02-16T00:31:22.431Z,5.85
2023-02-16T00:33:50.236Z,4.85
2023-02-16T00:36:19.175Z,4.53
2023-02-16T00:38:46.643Z,5.25
2023-02-16T00:41:36.785Z,6.80
2023-02-16T00:44:05.304Z,5.38
2023-02-16T00:46:34.549Z,3.65
2023-02-16T00:49:01.847Z,4.78
2023-02-16T00:51:29.355Z,3.55
2023-02-16T00:53:56.728Z,4.32
2023-02-16T00:56:24.034Z,4.53
2023-02-16T00:58:51.342Z,3.25
2023-02-16T01:01:18.768Z,4.03
2023-02-16T01:03:46.285Z,4.88
2023-02-16T01:06:32.248Z,4.03
2023-02-16T01:09:32.481Z,5.45
2023-02-16T01:12:00.171Z,5.43
2023-02-16T01:14:30.842Z,6.43
2023-02-16T01:16:58.215Z,4.32
2023-02-16T01:19:28.388Z,5.72
2023-02-16T01:21:55.971Z,9.57
2023-02-16T01:24:23.150Z,6.45
2023-02-16T01:26:50.594Z,6.72
2023-02-16T01:29:19.388Z,11.13
2023-02-16T01:31:47.025Z,5.78
2023-02-16T01:34:14.702Z,3.67
2023-02-16T01:36:45.094Z,7.93
2023-02-16T01:39:14.060Z,4.18
2023-02-16T01:42:04.416Z,6.95
2023-02-16T01:44:46.919Z,4.50
2023-02-16T01:47:26.489Z,3.33
2023-02-16T01:49:53.841Z,4.18
2023-02-16T01:52:29.425Z,3.95
2023-02-16T01:55:00.973Z,7.25
2023-02-16T01:57:38.841Z,4.03
2023-02-16T02:00:32.064Z,7.25
2023-02-16T02:03:20.790Z,3.45
2023-02-16T02:05:48.458Z,6.18
2023-02-16T02:08:28.126Z,6.05
2023-02-16T02:11:09.785Z,6.60
2023-02-16T02:13:50.715Z,3.03
2023-02-16T02:16:19.545Z,4.47
2023-02-16T02:18:47.688Z,5.43
2023-02-16T02:21:48.714Z,11.48
2023-02-16T02:24:46.923Z,3.75
2023-02-16T02:27:27.603Z,10.02
2023-02-16T02:30:15.755Z,4.35
2023-02-16T02:32:50.494Z,3.90
2023-02-16T02:35:29.882Z,4.78
2023-02-16T02:38:09.544Z,7.38
2023-02-16T02:41:15.611Z,5.03
2023-02-16T02:43:42.715Z,3.53
2023-02-16T02:46:17.611Z,6.63
2023-02-16T02:48:45.344Z,4.75
2023-02-16T02:51:28.684Z,4.43
2023-02-16T02:54:26.840Z,7.25
2023-02-16T02:57:32.821Z,8.23
2023-02-16T03:00:41.476Z,4.35
2023-02-16T03:03:22.239Z,9.95
2023-02-16T03:05:52.369Z,5.80
2023-02-16T03:08:23.084Z,7.65
2023-02-16T03:11:12.333Z,4.53
2023-02-16T03:13:42.519Z,5.47
2023-02-16T03:16:14.727Z,6.53
2023-02-16T03:19:01.161Z,7.55
2023-02-16T03:21:47.437Z,12.80
2023-02-16T03:24:37.869Z,8.38
2023-02-16T03:27:23.943Z,10.18
2023-02-16T03:29:51.328Z,4.10
2023-02-16T03:32:18.637Z,14.23
2023-02-16T03:34:45.916Z,6.82
2023-02-16T03:37:13.151Z,6.85
2023-02-16T03:39:59.060Z,7.28
2023-02-16T03:42:26.623Z,6.80
2023-02-16T03:44:57.585Z,4.35
2023-02-16T03:47:25.477Z,8.43
2023-02-16T03:49:52.687Z,4.47
2023-02-16T03:52:20.438Z,4.30
2023-02-16T03:54:47.820Z,3.35
2023-02-16T03:57:15.379Z,3.85
2023-02-16T03:59:42.665Z,21.08
2023-02-16T04:02:10.280Z,5.35
2023-02-16T04:04:37.663Z,4.22
2023-02-16T04:07:05.727Z,2.78
2023-02-16T04:09:32.963Z,5.18
2023-02-16T04:12:19.651Z,5.03
2023-02-16T04:14:47.500Z,3.70
2023-02-16T04:17:14.828Z,7.07
2023-02-16T04:19:42.053Z,4.97
2023-02-16T04:22:09.264Z,6.85
2023-02-16T04:24:37.319Z,3.10
2023-02-16T04:27:04.556Z,9.40
2023-02-16T04:29:32.781Z,4.43
2023-02-16T04:32:00.106Z,3.92
2023-02-16T04:34:27.428Z,3.67
2023-02-16T04:36:54.669Z,4.68
2023-02-16T04:39:22.198Z,3.10
2023-02-16T04:41:49.910Z,5.63
2023-02-16T04:44:17.233Z,8.63
2023-02-16T04:46:45.952Z,4.35
2023-02-16T04:49:13.201Z,4.80
2023-02-16T04:51:40.534Z,11.40
2023-02-16T04:54:07.909Z,13.90
2023-02-16T04:56:35.332Z,8.70
2023-02-16T04:59:02.686Z,6.50
2023-02-16T05:01:31.026Z,5.03
2023-02-16T05:03:58.914Z,4.93
2023-02-16T05:06:26.244Z,4.70
2023-02-16T05:08:53.602Z,6.30
2023-02-16T05:11:40.100Z,6.25
2023-02-16T05:14:25.996Z,7.13
2023-02-16T05:16:54.072Z,7.80
2023-02-16T05:19:21.343Z,11.77
2023-02-16T05:21:49.852Z,5.18
2023-02-16T05:24:17.297Z,12.32
2023-02-16T05:26:44.821Z,8.02
2023-02-16T05:29:12.178Z,6.22
2023-02-16T05:31:43.046Z,10.93
2023-02-16T05:34:10.318Z,3.38
2023-02-16T05:36:37.568Z,8.88
2023-02-16T05:39:04.797Z,7.20
2023-02-16T05:41:32.227Z,7.45
2023-02-16T05:44:00.764Z,5.57
2023-02-16T05:46:28.737Z,4.57
2023-02-16T05:48:56.032Z,7.90
2023-02-16T05:51:23.430Z,5.85
2023-02-16T05:53:50.795Z,7.80
2023-02-16T05:56:18.339Z,9.18
2023-02-16T05:58:45.578Z,8.90
2023-02-16T06:01:13.063Z,4.05
2023-02-16T06:03:40.327Z,5.25
2023-02-16T06:06:09.115Z,7.53
2023-02-16T06:08:36.716Z,6.50
2023-02-16T06:11:07.102Z,5.47
2023-02-16T06:13:40.774Z,7.85
2023-02-16T06:16:08.699Z,10.75
2023-02-16T06:18:35.944Z,9.80
2023-02-16T06:21:04.030Z,6.90
2023-02-16T06:23:31.974Z,5.47
2023-02-16T06:25:59.307Z,10.15
2023-02-16T06:28:26.994Z,7.85
2023-02-16T06:30:54.331Z,11.90
2023-02-16T06:33:21.520Z,9.30
2023-02-16T06:35:48.928Z,9.23
2023-02-16T06:38:16.706Z,6.90
2023-02-16T06:40:44.039Z,6.65
2023-02-16T06:43:11.430Z,10.23
2023-02-16T06:45:38.634Z,7.35
2023-02-16T06:48:06.273Z,14.05
2023-02-16T06:50:33.627Z,8.57
2023-02-16T06:53:01.916Z,8.02
2023-02-16T06:55:31.659Z,10.38
2023-02-16T06:57:59.210Z,8.27
2023-02-16T07:00:26.546Z,7.93
2023-02-16T07:02:57.387Z,7.93
2023-02-16T07:05:24.939Z,11.23
2023-02-16T07:07:52.354Z,5.65
2023-02-16T07:10:22.830Z,9.43
2023-02-16T07:12:50.175Z,7.03
2023-02-16T07:15:17.594Z,5.28
2023-02-16T07:17:45.447Z,5.97
2023-02-16T07:20:18.050Z,7.00
2023-02-16T07:22:46.473Z,13.13
2023-02-16T07:25:13.834Z,5.25
2023-02-16T07:27:41.112Z,6.13
2023-02-16T07:30:09.196Z,7.07
2023-02-16T07:32:37.320Z,10.40
2023-02-16T07:35:04.926Z,5.55
2023-02-16T07:37:32.364Z,13.18
2023-02-16T07:39:59.731Z,9.50
2023-02-16T07:42:31.190Z,10.57
2023-02-16T07:44:59.119Z,10.00
2023-02-16T07:47:26.636Z,10.85
2023-02-16T07:49:53.929Z,8.32
2023-02-16T07:52:21.156Z,15.02
2023-02-16T07:54:48.646Z,10.43
2023-02-16T07:57:15.952Z,7.15
2023-02-16T07:59:43.441Z,8.98
2023-02-16T08:02:16.109Z,9.60
2023-02-16T08:04:44.085Z,23.20
2023-02-16T08:07:15.062Z,11.80
2023-02-16T08:09:42.423Z,7.30
2023-02-16T08:12:13.690Z,7.47
2023-02-16T08:14:41.354Z,9.23
2023-02-16T08:17:08.793Z,12.38
2023-02-16T08:19:37.190Z,6.28
2023-02-16T08:22:04.759Z,22.58
2023-02-16T08:24:34.049Z,20.58
2023-02-16T08:27:03.881Z,12.07
2023-02-16T08:29:35.981Z,17.83
2023-02-16T08:32:07.727Z,10.48
2023-02-16T08:34:53.390Z,7.15
2023-02-16T08:37:21.079Z,11.38
2023-02-16T08:39:49.254Z,6.22
2023-02-16T08:42:17.396Z,6.57
2023-02-16T08:44:44.796Z,15.75
2023-02-16T08:47:12.702Z,5.72
2023-02-16T08:49:40.381Z,6.82
2023-02-16T08:52:07.703Z,6.07
2023-02-16T08:54:36.276Z,6.88
2023-02-16T08:57:03.969Z,7.78
2023-02-16T08:59:31.652Z,6.60
2023-02-16T09:02:00.094Z,4.63
2023-02-16T09:04:29.231Z,5.82
2023-02-16T09:06:58.065Z,6.03
2023-02-16T09:09:26.518Z,8.80
2023-02-16T09:11:58.169Z,6.13
2023-02-16T09:14:27.982Z,4.60
2023-02-16T09:16:55.357Z,4.97
2023-02-16T09:19:22.682Z,5.63
2023-02-16T09:21:51.199Z,4.80
2023-02-16T09:24:21.998Z,7.50
2023-02-16T09:27:07.292Z,5.25
2023-02-16T09:29:40.358Z,4.20
2023-02-16T09:32:09.874Z,3.65
2023-02-16T09:34:38.004Z,3.22
2023-02-16T09:37:05.353Z,5.50
2023-02-16T09:39:33.785Z,11.15
2023-02-16T09:42:18.671Z,4.78
2023-02-16T09:44:49.329Z,4.65
2023-02-16T09:47:20.127Z,3.83
2023-02-16T09:49:48.460Z,10.40
2023-02-16T09:52:40.411Z,3.95
2023-02-16T09:55:12.699Z,2.92
2023-02-16T09:58:01.515Z,12.07
2023-02-16T10:00:35.903Z,2.45
2023-02-16T10:03:25.271Z,2.38
2023-02-16T10:06:14.054Z,3.63
2023-02-16T10:08:48.550Z,2.90
2023-02-16T10:11:38.315Z,2.90
2023-02-16T10:14:08.052Z,2.25
2023-02-16T10:16:41.347Z,3.15
2023-02-16T10:19:21.481Z,2.60
2023-02-16T10:21:51.356Z,3.20
2023-02-16T10:24:18.692Z,2.10
2023-02-16T10:26:50.317Z,3.70
2023-02-16T10:29:19.424Z,3.05
2023-02-16T10:32:03.397Z,4.95
2023-02-16T10:34:49.524Z,4.90
2023-02-16T10:37:24.033Z,5.60
2023-02-16T10:40:25.921Z,3.40
2023-02-16T10:43:10.934Z,4.88
2023-02-16T10:46:05.090Z,3.42
2023-02-16T10:48:32.369Z,2.47
2023-02-16T10:51:12.637Z,4.68
2023-02-16T10:53:44.208Z,4.80
2023-02-16T10:56:20.712Z,6.78
2023-02-16T10:58:47.946Z,5.47
2023-02-16T11:01:18.870Z,3.00
2023-02-16T11:03:48.832Z,2.42
2023-02-16T11:06:18.154Z,3.55
2023-02-16T11:08:50.927Z,3.33
2023-02-16T11:11:23.111Z,3.72
2023-02-16T11:14:05.365Z,3.05
2023-02-16T11:16:33.836Z,3.80
2023-02-16T11:19:13.571Z,3.25
2023-02-16T11:21:52.225Z,5.07
2023-02-16T11:24:33.354Z,5.28
2023-02-16T11:29:28.730Z,6.88
2023-02-16T11:31:56.263Z,4.40
2023-02-16T11:34:47.503Z,4.55
2023-02-16T11:37:23.835Z,5.05
2023-02-16T11:39:56.390Z,4.60
2023-02-16T11:42:36.434Z,3.38
2023-02-16T11:45:07.772Z,12.88
2023-02-16T11:47:37.692Z,6.43
2023-02-16T11:50:18.917Z,10.63
2023-02-16T11:52:51.609Z,14.05
2023-02-16T11:55:21.915Z,22.20
2023-02-16T11:57:49.305Z,5.03
2023-02-16T12:00:19.611Z,4.88
2023-02-16T12:03:39.253Z,3.75
2023-02-16T12:06:08.094Z,3.95
2023-02-16T12:08:52.029Z,4.05
2023-02-16T12:11:42.834Z,3.72
2023-02-16T12:14:36.492Z,4.00
2023-02-16T12:17:28.626Z,2.83
2023-02-16T12:20:32.068Z,4.13
2023-02-16T12:23:18.773Z,3.90
2023-02-16T12:25:55.014Z,3.65
2023-02-16T12:28:22.323Z,3.33
2023-02-16T12:31:27.089Z,3.95
2023-02-16T12:34:00.451Z,4.38
2023-02-16T12:36:48.793Z,3.10
2023-02-16T12:39:38.753Z,4.00
2023-02-16T12:42:06.045Z,3.28
2023-02-16T12:44:46.132Z,2.63
2023-02-16T12:47:17.888Z,3.65
2023-02-16T12:49:48.592Z,3.40
2023-02-16T12:52:35.471Z,6.57
2023-02-16T12:55:22.604Z,5.72
2023-02-16T12:58:00.140Z,8.30
2023-02-16T13:00:48.595Z,5.25
2023-02-16T13:03:42.279Z,3.97
2023-02-16T13:06:21.450Z,5.57
2023-02-16T13:08:57.171Z,5.20
2023-02-16T13:12:00.072Z,6.57
2023-02-16T13:14:31.835Z,4.85
2023-02-16T13:17:00.545Z,10.02
2023-02-16T13:19:27.915Z,11.90
2023-02-16T13:22:28.082Z,8.73
2023-02-16T13:25:09.640Z,13.40
2023-02-16T13:27:58.301Z,8.05
2023-02-16T13:30:41.933Z,3.75
2023-02-16T13:33:28.860Z,7.30
2023-02-16T13:36:05.124Z,6.88
2023-02-16T13:38:56.049Z,7.43
2023-02-16T13:41:42.199Z,5.47
2023-02-16T13:44:12.839Z,8.15
2023-02-16T13:46:43.511Z,7.23
2023-02-16T13:49:33.108Z,7.13
2023-02-16T13:52:00.524Z,18.25
2023-02-16T13:54:29.322Z,13.05
2023-02-16T13:56:56.598Z,11.23
2023-02-16T13:59:23.760Z,8.35
2023-02-16T14:01:53.702Z,14.98
2023-02-16T14:04:24.742Z,8.52
2023-02-16T14:06:52.610Z,12.15
2023-02-16T14:09:21.297Z,25.27
2023-02-16T14:11:54.304Z,12.95
2023-02-16T14:14:43.454Z,18.00
2023-02-16T14:17:19.632Z,8.20
2023-02-16T14:19:59.289Z,6.20
2023-02-16T14:22:50.941Z,7.20
2023-02-16T14:25:22.259Z,8.82
2023-02-16T14:30:20.864Z,6.65
2023-02-16T14:33:16.721Z,8.27
2023-02-16T14:36:04.410Z,10.38
2023-02-16T14:38:33.396Z,12.63
2023-02-16T14:41:06.201Z,7.95
2023-02-16T14:43:34.394Z,8.60
2023-02-16T14:46:42.957Z,8.52
2023-02-16T14:49:33.977Z,7.60
2023-02-16T14:52:09.956Z,9.32
2023-02-16T14:54:56.029Z,6.70
2023-02-16T14:57:33.832Z,6.93
2023-02-16T15:00:22.113Z,7.28
2023-02-16T15:03:14.911Z,6.18
2023-02-16T15:05:42.422Z,6.53
2023-02-16T15:08:17.203Z,20.95
2023-02-16T15:10:46.602Z,17.27
2023-02-16T15:13:27.900Z,12.38
2023-02-16T15:18:44.156Z,10.88
2023-02-16T15:21:28.398Z,7.22
2023-02-16T15:23:57.082Z,11.75
2023-02-16T15:26:33.267Z,10.52
2023-02-16T15:29:02.515Z,12.23
2023-02-16T15:31:34.742Z,13.38
2023-02-16T15:34:13.637Z,12.77
2023-02-16T15:36:44.257Z,9.73
2023-02-16T15:39:16.323Z,9.73
2023-02-16T15:41:45.214Z,14.88
2023-02-16T15:44:34.319Z,17.02
2023-02-16T15:47:13.777Z,14.32
2023-02-16T15:49:41.221Z,11.05
2023-02-16T15:52:12.978Z,10.45
2023-02-16T15:54:40.620Z,10.98
2023-02-16T15:57:16.658Z,11.27
2023-02-16T15:59:52.959Z,11.20
2023-02-16T16:02:33.377Z,17.67
2023-02-16T16:05:02.822Z,9.43
2023-02-16T16:07:35.686Z,14.05
2023-02-16T16:10:20.681Z,13.88
2023-02-16T16:12:50.658Z,10.88
2023-02-16T16:15:22.852Z,10.32
2023-02-16T16:17:51.565Z,7.97
2023-02-16T16:20:30.576Z,6.93
2023-02-16T16:22:59.538Z,11.88
2023-02-16T16:25:36.894Z,8.00
2023-02-16T16:28:05.499Z,9.23
2023-02-16T16:30:37.066Z,13.32
2023-02-16T16:33:10.559Z,6.47
2023-02-16T16:35:39.976Z,7.57
2023-02-16T16:38:21.259Z,7.00
2023-02-16T16:41:06.936Z,10.68
2023-02-16T16:43:38.221Z,7.35
2023-02-16T16:46:38.491Z,8.02
2023-02-16T16:49:12.585Z,7.38
2023-02-16T16:51:40.701Z,5.90
2023-02-16T16:54:33.809Z,8.80
2023-02-16T16:57:04.978Z,8.85
2023-02-16T16:59:32.175Z,9.52
2023-02-16T17:01:59.407Z,21.20
2023-02-16T17:04:27.875Z,15.48
2023-02-16T17:06:55.981Z,27.42
2023-02-16T17:09:23.525Z,29.20
2023-02-16T17:11:50.846Z,19.92
2023-02-16T17:14:18.609Z,19.23
2023-02-16T17:16:53.212Z,27.50
2023-02-16T17:19:21.671Z,26.27
2023-02-16T17:21:49.227Z,38.78
2023-02-16T17:24:16.561Z,30.67
2023-02-16T17:26:43.932Z,33.80
2023-02-16T17:29:12.193Z,29.95
2023-02-16T17:31:39.657Z,27.45
2023-02-16T17:34:08.780Z,49.05
2023-02-16T17:36:36.485Z,30.55
2023-02-16T17:39:08.666Z,45.22
2023-02-16T17:41:36.940Z,51.45
2023-02-16T17:44:04.316Z,53.50
2023-02-16T17:46:32.620Z,37.08
2023-02-16T17:49:00.636Z,25.05
2023-02-16T17:51:29.623Z,30.33
2023-02-16T17:53:57.362Z,26.23
2023-02-16T17:56:25.340Z,20.10
2023-02-16T17:58:52.629Z,17.80
2023-02-16T18:01:21.001Z,16.00
2023-02-16T18:03:50.753Z,22.23
2023-02-16T18:06:19.850Z,9.45
2023-02-16T18:08:47.189Z,13.23
2023-02-16T18:11:15.834Z,19.25
2023-02-16T18:13:43.346Z,15.75
2023-02-16T18:16:15.648Z,23.23
2023-02-16T18:18:43.831Z,23.85
2023-02-16T18:21:11.383Z,29.00
2023-02-16T18:23:38.744Z,18.23
2023-02-16T18:26:06.430Z,22.80
2023-02-16T18:28:34.389Z,22.42
2023-02-16T18:31:01.802Z,29.48
2023-02-16T18:33:29.325Z,18.70
2023-02-16T18:35:57.466Z,19.85
2023-02-16T18:38:25.192Z,21.23
2023-02-16T18:40:53.845Z,29.13
2023-02-16T18:43:22.097Z,34.78
2023-02-16T18:45:49.763Z,35.10
2023-02-16T18:48:17.172Z,67.25
2023-02-16T18:50:45.466Z,86.10
2023-02-16T18:53:12.741Z,46.65
2023-02-16T18:55:40.229Z,38.80
2023-02-16T18:58:08.590Z,40.05
2023-02-16T19:00:36.743Z,20.67
2023-02-16T19:03:04.681Z,16.67
2023-02-16T19:05:33.214Z,25.60
2023-02-16T19:08:00.570Z,17.75
2023-02-16T19:10:27.854Z,17.33
2023-02-16T19:12:55.645Z,8.20
2023-02-16T19:15:23.025Z,11.80
2023-02-16T19:17:52.124Z,11.52
2023-02-16T19:20:19.461Z,9.90
2023-02-16T19:22:47.113Z,13.00
2023-02-16T19:25:15.107Z,12.50
2023-02-16T19:27:43.819Z,17.35
2023-02-16T19:30:11.734Z,11.02
2023-02-16T19:32:41.104Z,11.95
2023-02-16T19:35:10.096Z,8.52
2023-02-16T19:37:39.797Z,7.53
2023-02-16T19:40:08.884Z,10.50
2023-02-16T19:42:37.049Z,10.20
2023-02-16T19:45:04.914Z,10.40
2023-02-16T19:47:32.171Z,17.55
2023-02-16T19:49:59.425Z,20.00
2023-02-16T19:52:26.673Z,11.32
2023-02-16T19:54:54.166Z,12.90
2023-02-16T19:57:21.434Z,14.77
2023-02-16T19:59:48.646Z,10.70
2023-02-16T20:02:15.874Z,14.10
2023-02-16T20:04:44.440Z,12.85
2023-02-16T20:07:13.422Z,11.30
2023-02-16T20:09:40.770Z,13.73
2023-02-16T20:12:08.446Z,15.93
2023-02-16T20:14:38.212Z,15.25
2023-02-16T20:17:06.033Z,14.38
2023-02-16T20:19:33.426Z,11.43
2023-02-16T20:22:00.790Z,16.27
2023-02-16T20:24:28.028Z,9.43
2023-02-16T20:26:56.753Z,11.98
2023-02-16T20:29:24.003Z,9.32
2023-02-16T20:31:54.346Z,12.65
2023-02-16T20:34:22.561Z,16.30
2023-02-16T20:36:50.505Z,10.07
2023-02-16T20:39:18.635Z,17.20
2023-02-16T20:41:46.076Z,17.85
2023-02-16T20:44:13.431Z,15.40
2023-02-16T20:46:40.938Z,12.85
2023-02-16T20:49:08.351Z,13.13
2023-02-16T20:51:36.385Z,10.35
2023-02-16T20:54:03.888Z,16.55
2023-02-16T20:56:31.157Z,11.70
2023-02-16T20:59:02.969Z,17.70
2023-02-16T21:01:39.142Z,12.68
2023-02-16T21:04:07.174Z,13.63
2023-02-16T21:06:34.862Z,17.10
2023-02-16T21:09:03.011Z,20.52
2023-02-16T21:11:32.789Z,18.07
2023-02-16T21:14:02.169Z,10.02
2023-02-16T21:16:29.760Z,18.98
2023-02-16T21:18:57.070Z,12.70
2023-02-16T21:21:24.312Z,12.07
2023-02-16T21:23:52.909Z,18.33
2023-02-16T21:26:21.374Z,23.88
2023-02-16T21:28:49.022Z,14.60
2023-02-16T21:31:18.129Z,14.63
2023-02-16T21:33:45.980Z,11.30
2023-02-16T21:36:15.210Z,16.02
2023-02-16T21:38:42.860Z,12.82
2023-02-16T21:41:24.671Z,12.00
2023-02-16T21:44:07.701Z,13.98
2023-02-16T21:46:39.954Z,13.52
2023-02-16T21:49:09.077Z,20.60
2023-02-16T21:51:38.405Z,12.30
2023-02-16T21:54:07.202Z,12.00
2023-02-16T21:56:38.992Z,10.98
2023-02-16T21:59:08.219Z,8.70
2023-02-16T22:01:42.711Z,8.10
2023-02-16T22:04:15.223Z,9.38
2023-02-16T22:06:44.926Z,9.82
2023-02-16T22:09:14.297Z,9.63
2023-02-16T22:11:42.051Z,17.20
2023-02-16T22:14:09.505Z,11.70
2023-02-16T22:16:39.281Z,13.98
2023-02-16T22:19:12.530Z,15.00
2023-02-16T22:21:40.800Z,13.95
2023-02-16T22:24:08.635Z,15.75
2023-02-16T22:26:35.958Z,13.38
2023-02-16T22:29:04.120Z,14.15
2023-02-16T22:31:31.913Z,18.10
2023-02-16T22:34:01.488Z,16.20
2023-02-16T22:36:29.392Z,14.98
2023-02-16T22:38:56.950Z,14.88
2023-02-16T22:41:24.566Z,13.80
2023-02-16T22:43:53.968Z,19.80
2023-02-16T22:46:21.826Z,26.15
2023-02-16T22:48:49.044Z,20.50
2023-02-16T22:51:17.284Z,23.80
2023-02-16T22:53:44.552Z,17.67
2023-02-16T22:56:16.581Z,15.10
2023-02-16T22:58:46.596Z,22.58
2023-02-16T23:01:15.433Z,16.70
2023-02-16T23:03:59.031Z,19.17
2023-02-16T23:06:34.147Z,16.50
2023-02-16T23:09:06.326Z,16.25
2023-02-16T23:11:35.628Z,13.00
2023-02-16T23:14:03.301Z,19.45
2023-02-16T23:16:30.666Z,13.90
2023-02-16T23:19:00.135Z,14.48
2023-02-16T23:21:29.359Z,12.63
2023-02-16T23:23:56.800Z,14.75
2023-02-16T23:26:26.703Z,12.02
2023-02-16T23:28:55.017Z,11.55
2023-02-16T23:31:23.797Z,13.32
2023-02-16T23:33:51.294Z,7.65
2023-02-16T23:36:18.543Z,10.05
2023-02-16T23:38:45.977Z,11.32
2023-02-16T23:41:13.659Z,6.85
2023-02-16T23:43:40.922Z,9.85
2023-02-16T23:46:08.966Z,7.50
2023-02-16T23:48:38.232Z,13.43
2023-02-16T23:51:05.626Z,7.13
2023-02-16T23:53:33.429Z,13.05
2023-02-16T23:56:01.963Z,11.90
2023-02-16T23:58:30.234Z,6.95
